Time;durP1;ratioP1;P1;durP2;ratioP2;P2;SDS_P1;SDS_P2;PMS_P1;PMS_P2;Temp;Humidity;BMP_temperature;BMP_pressure;BME280_temperature;BME280_humidity;BME280_pressure;Samples;Min_cycle;Max_cycle;Signal;HPM_P1;HPM_P2
2022/09/12 00:00:36;;;;;;;3.11;1.17;;;;;;;15.84;39.13;100123.67;455198;116;923250;-77
2022/09/12 00:01:41;;;;;;;4.78;1.55;;;;;;;15.86;39.23;100118.75;454553;116;922514;-78
2022/09/12 00:02:45;;;;;;;5.16;1.49;;;;;;;15.89;39.02;100131.97;454837;116;930257;-77
2022/09/12 00:03:55;;;;;;;8.68;1.55;;;;;;;15.90;38.92;100125.37;455139;116;930532;-78
2022/09/12 00:05:00;;;;;;;3.73;1.72;;;;;;;15.92;38.69;100122.37;454059;116;930449;-77
2022/09/12 00:06:16;;;;;;;9.09;1.62;;;;;;;15.93;38.72;100119.38;455384;116;922620;-77
2022/09/12 00:07:22;;;;;;;8.53;1.59;;;;;;;15.94;38.72;100126.51;454981;116;930583;-77
2022/09/12 00:08:25;;;;;;;6.08;1.06;;;;;;;15.95;38.71;100119.92;455633;116;922993;-77
2022/09/12 00:09:28;;;;;;;3.27;1.24;;;;;;;15.95;38.71;100119.92;455651;116;922419;-77
2022/09/12 00:10:31;;;;;;;7.61;1.49;;;;;;;15.96;38.83;100121.59;455592;116;922448;-77
2022/09/12 00:11:36;;;;;;;9.82;1.53;;;;;;;15.97;39.05;100119.67;455582;116;923071;-77
2022/09/12 00:12:39;;;;;;;3.23;1.77;;;;;;;15.97;38.94;100112.25;455435;116;922870;-78
2022/09/12 00:13:42;;;;;;;4.14;1.72;;;;;;;15.99;39.03;100120.25;455584;116;922516;-78
2022/09/12 00:14:45;;;;;;;2.77;1.35;;;;;;;15.99;39.02;100120.25;455620;116;923032;-78
2022/09/12 00:15:48;;;;;;;3.20;1.42;;;;;;;15.98;38.94;100124.92;456689;116;923434;-78
2022/09/12 00:16:51;;;;;;;4.37;1.51;;;;;;;15.98;39.13;100111.17;457352;115;922956;-78
2022/09/12 00:17:54;;;;;;;5.81;1.51;;;;;;;15.98;39.23;100111.17;457295;114;922525;-78
2022/09/12 00:18:57;;;;;;;3.53;1.47;;;;;;;15.99;39.16;100112.80;457341;115;923093;-77
2022/09/12 00:20:00;;;;;;;2.24;1.19;;;;;;;16.00;39.22;100110.88;457347;115;923086;-78
2022/09/12 00:21:04;;;;;;;4.78;1.40;;;;;;;16.01;39.36;100109.80;457326;115;922356;-77
2022/09/12 00:22:07;;;;;;;4.92;1.18;;;;;;;16.03;39.38;100115.88;457351;115;922501;-78
2022/09/12 00:23:10;;;;;;;4.76;1.81;;;;;;;16.03;39.47;100113.96;457332;114;922936;-77
2022/09/12 00:24:13;;;;;;;4.16;1.65;;;;;;;16.04;39.47;100110.12;457213;116;923443;-77
2022/09/12 00:25:16;;;;;;;8.25;1.62;;;;;;;16.04;39.29;100112.05;457346;116;922667;-77
2022/09/12 00:26:20;;;;;;;3.89;1.57;;;;;;;16.05;39.08;100109.01;457395;115;922537;-78
2022/09/12 00:27:24;;;;;;;5.88;1.64;;;;;;;16.05;39.08;100109.01;457258;115;922505;-78
2022/09/12 00:28:27;;;;;;;6.94;1.84;;;;;;;16.05;38.95;100110.92;457310;114;922648;-77
2022/09/12 00:29:30;;;;;;;4.44;1.68;;;;;;;16.06;39.03;100110.67;457423;115;922525;-78
2022/09/12 00:30:33;;;;;;;3.95;1.57;;;;;;;16.06;38.93;100109.84;460201;115;922360;-78
2022/09/12 00:31:36;;;;;;;5.69;1.70;;;;;;;16.08;39.14;100104.92;457614;115;922932;-77
2022/09/12 00:32:39;;;;;;;7.24;1.61;;;;;;;16.08;38.90;100107.67;457324;115;922991;-77
2022/09/12 00:33:42;;;;;;;6.61;1.87;;;;;;;16.09;38.95;100103.83;456258;114;923131;-78
2022/09/12 00:34:45;;;;;;;5.42;1.69;;;;;;;16.10;39.08;100111.80;449524;118;923046;-77
2022/09/12 00:35:51;;;;;;;7.53;1.82;;;;;;;16.12;39.02;100112.38;449574;117;923028;-78
2022/09/12 00:36:55;;;;;;;3.41;1.27;;;;;;;16.12;39.13;100112.38;449342;118;922905;-78
2022/09/12 00:37:57;;;;;;;6.46;1.74;;;;;;;16.13;39.33;100114.04;449467;116;923075;-77
2022/09/12 00:39:00;;;;;;;4.99;1.86;;;;;;;16.12;39.38;100104.13;449487;117;922412;-77
2022/09/12 00:40:04;;;;;;;3.49;1.40;;;;;;;16.13;39.60;100107.70;449571;117;923202;-78
2022/09/12 00:41:13;;;;;;;7.34;1.86;;;;;;;16.13;39.50;100108.54;449392;117;922773;-78
2022/09/12 00:42:16;;;;;;;4.84;1.78;;;;;;;16.13;39.54;100103.04;449073;117;922634;-77
2022/09/12 00:43:34;;;;;;;4.73;1.86;;;;;;;16.15;39.59;100109.09;449543;116;922559;-77
2022/09/12 00:44:43;;;;;;;7.69;1.80;;;;;;;16.15;39.64;100100.84;449330;118;922753;-78
2022/09/12 00:45:46;;;;;;;5.19;1.92;;;;;;;16.15;39.83;100103.59;449333;118;922858;-77
2022/09/12 00:46:52;;;;;;;4.28;1.96;;;;;;;16.16;40.05;100104.42;449575;117;922533;-77
2022/09/12 00:47:59;;;;;;;4.25;1.49;;;;;;;16.15;40.15;100102.78;449330;116;922582;-77
2022/09/12 00:49:23;;;;;;;4.08;1.66;;;;;;;16.16;40.15;100098.92;449388;118;922602;-78
2022/09/12 00:50:27;;;;;;;5.07;1.67;;;;;;;16.16;40.53;100097.00;449376;118;922544;-78
2022/09/12 00:51:33;;;;;;;8.12;2.08;;;;;;;16.16;40.63;100099.75;449465;117;922570;-78
2022/09/12 00:52:45;;;;;;;6.11;1.94;;;;;;;16.16;40.73;100099.75;449224;118;930528;-78
2022/09/12 00:53:51;;;;;;;5.06;1.68;;;;;;;16.17;40.80;100095.08;447087;117;923023;-78
2022/09/12 00:55:03;;;;;;;6.66;1.58;;;;;;;16.17;40.89;100097.83;449362;118;922571;-78
2022/09/12 00:56:07;;;;;;;3.92;1.53;;;;;;;16.17;41.09;100095.08;448844;117;922873;-77
2022/09/12 00:57:13;;;;;;;3.51;1.34;;;;;;;16.17;41.36;100095.08;449423;118;922495;-77
2022/09/12 00:58:19;;;;;;;4.08;2.07;;;;;;;16.17;41.48;100093.16;449228;116;922618;-78
2022/09/12 00:59:32;;;;;;;5.18;1.62;;;;;;;16.18;41.50;100099.49;449127;117;922512;-77
2022/09/12 01:00:35;;;;;;;5.34;2.02;;;;;;;16.16;41.43;100097.00;447577;118;923032;-78
2022/09/12 01:01:40;;;;;;;4.43;1.81;;;;;;;16.17;41.27;100098.66;450307;117;923092;-78
2022/09/12 01:02:46;;;;;;;9.69;1.80;;;;;;;16.17;41.25;100101.41;449980;116;922662;-78
2022/09/12 01:03:49;;;;;;;3.66;1.63;;;;;;;16.17;41.26;100095.08;449284;118;922998;-78
2022/09/12 01:04:52;;;;;;;3.48;1.58;;;;;;;16.17;41.37;100095.91;449535;117;922469;-78
2022/09/12 01:06:04;;;;;;;7.54;2.19;;;;;;;16.17;41.41;100093.16;449527;117;922887;-77
2022/09/12 01:07:07;;;;;;;5.23;1.61;;;;;;;16.17;41.54;100098.66;449320;118;922501;-78
2022/09/12 01:08:11;;;;;;;4.99;1.77;;;;;;;16.17;41.49;100098.66;449505;117;923097;-78
2022/09/12 01:09:17;;;;;;;9.21;2.08;;;;;;;16.18;41.37;100100.33;449520;117;922591;-78
2022/09/12 01:10:21;;;;;;;6.52;1.79;;;;;;;16.18;41.44;100092.08;449312;118;922949;-78
2022/09/12 01:11:24;;;;;;;5.87;1.62;;;;;;;16.18;41.38;100096.75;449404;117;922846;-78
2022/09/12 01:12:28;;;;;;;3.68;1.97;;;;;;;16.17;41.30;100095.91;449350;117;930881;-78
2022/09/12 01:13:33;;;;;;;5.96;1.66;;;;;;;16.16;41.19;100091.50;449369;116;930509;-77
2022/09/12 01:14:37;;;;;;;8.16;1.87;;;;;;;16.15;41.16;100092.58;449457;118;928024;-78
2022/09/12 01:15:40;;;;;;;5.78;1.66;;;;;;;16.15;41.25;100092.58;453178;116;922956;-77
2022/09/12 01:16:44;;;;;;;6.34;1.94;;;;;;;16.15;41.30;100092.58;457439;116;922516;-78
2022/09/12 01:18:06;;;;;;;5.71;2.25;;;;;;;16.14;41.51;100090.95;457282;116;923092;-78
2022/09/12 01:19:45;;;;;;;3.99;1.87;;;;;;;16.15;41.73;100095.33;457135;116;930544;-78
2022/09/12 01:21:06;;;;;;;5.39;1.67;;;;;;;16.15;41.96;100098.08;457225;116;922612;-78
2022/09/12 01:22:16;;;;;;;5.17;1.90;;;;;;;16.13;42.29;100093.95;457167;116;922506;-77
2022/09/12 01:23:28;;;;;;;5.58;1.92;;;;;;;16.12;42.53;100098.63;444665;116;922832;-77
2022/09/12 01:24:39;;;;;;;6.32;1.97;;;;;;;16.11;42.42;100090.63;457209;116;923567;-78
2022/09/12 01:26:08;;;;;;;4.09;1.71;;;;;;;16.11;42.34;100096.12;457344;115;923044;-77
2022/09/12 01:27:17;;;;;;;4.57;1.70;;;;;;;16.10;42.31;100095.30;457247;116;923026;-78
2022/09/12 01:28:35;;;;;;;2.77;1.84;;;;;;;16.10;42.42;100094.47;457215;114;922819;-78
2022/09/12 01:30:03;;;;;;;5.89;1.91;;;;;;;16.08;42.59;100089.25;457256;116;922492;-78
2022/09/12 01:31:10;;;;;;;4.52;1.72;;;;;;;16.08;42.83;100086.50;457154;116;922896;-77
2022/09/12 01:32:16;;;;;;;4.18;1.86;;;;;;;16.08;43.14;100086.50;456900;115;922614;-78
2022/09/12 01:33:25;;;;;;;4.09;2.03;;;;;;;16.08;43.14;100094.75;457203;114;922486;-78
2022/09/12 01:34:44;;;;;;;7.58;1.72;;;;;;;16.07;43.31;100082.09;449778;114;923002;-78
2022/09/12 01:36:10;;;;;;;3.86;1.38;;;;;;;16.08;43.46;100086.50;449495;118;922943;-78
2022/09/12 01:37:25;;;;;;;3.82;1.75;;;;;;;16.08;43.37;100082.92;449527;118;923015;-78
2022/09/12 01:38:38;;;;;;;4.51;2.09;;;;;;;16.08;43.30;100082.92;449008;117;922482;-77
2022/09/12 01:40:03;;;;;;;5.72;1.37;;;;;;;16.08;43.19;100075.50;449488;118;922759;-78
2022/09/12 01:41:12;;;;;;;5.26;1.74;;;;;;;16.08;43.38;100074.67;449130;117;922919;-78
2022/09/12 01:42:27;;;;;;;4.78;1.67;;;;;;;16.08;43.49;100080.17;449088;117;923032;-78
2022/09/12 01:43:40;;;;;;;5.06;2.01;;;;;;;16.08;43.42;100085.67;449339;116;922484;-77
2022/09/12 01:44:53;;;;;;;9.22;2.19;;;;;;;16.07;43.50;100084.00;449443;118;923029;-78
2022/09/12 01:46:08;;;;;;;7.05;1.97;;;;;;;16.07;43.70;100079.34;449434;118;922988;-78
2022/09/12 01:47:27;;;;;;;3.69;1.47;;;;;;;16.07;44.03;100079.34;449027;117;922872;-78
2022/09/12 01:48:49;;;;;;;3.91;1.79;;;;;;;16.06;44.07;100071.34;449418;116;923200;-77
2022/09/12 01:49:58;;;;;;;6.49;1.72;;;;;;;16.06;44.06;100082.34;449228;117;922735;-78
2022/09/12 01:51:13;;;;;;;4.18;1.76;;;;;;;16.06;44.17;100076.84;449452;118;922563;-78
2022/09/12 01:52:30;;;;;;;4.71;1.36;;;;;;;16.06;44.37;100077.67;449445;118;923017;-78
2022/09/12 01:53:43;;;;;;;6.39;1.79;;;;;;;16.06;44.56;100074.09;449417;116;923108;-78
2022/09/12 01:54:52;;;;;;;4.83;2.02;;;;;;;16.06;44.77;100082.34;449473;118;922556;-78
2022/09/12 01:55:58;;;;;;;3.37;2.08;;;;;;;16.04;44.87;100071.63;449466;118;922972;-77
2022/09/12 01:57:05;;;;;;;5.67;1.89;;;;;;;16.04;44.98;100070.80;449117;117;922468;-78
2022/09/12 01:58:27;;;;;;;4.69;1.74;;;;;;;16.04;45.07;100074.37;449464;118;922643;-78
2022/09/12 01:59:37;;;;;;;2.58;1.50;;;;;;;16.05;45.16;100075.17;449711;117;922766;-77
2022/09/12 02:00:47;;;;;;;6.00;1.73;;;;;;;16.04;45.14;100074.37;449458;117;922901;-78
2022/09/12 02:01:54;;;;;;;5.56;1.79;;;;;;;16.03;45.10;100072.71;449468;117;922958;-77
2022/09/12 02:03:09;;;;;;;4.16;1.37;;;;;;;16.04;45.16;100076.30;449488;116;923393;-78
2022/09/12 02:04:25;;;;;;;7.29;1.51;;;;;;;16.04;45.24;100073.55;449450;118;922515;-78
2022/09/12 02:05:34;;;;;;;4.11;1.59;;;;;;;16.04;45.42;100081.80;449454;117;923091;-78
2022/09/12 02:06:52;;;;;;;3.38;1.83;;;;;;;16.03;45.51;100071.88;449475;118;923103;-78
2022/09/12 02:08:14;;;;;;;5.71;2.26;;;;;;;16.04;45.59;100076.30;449488;116;922643;-77
2022/09/12 02:09:20;;;;;;;5.03;1.67;;;;;;;16.03;45.48;100072.71;449366;117;922606;-78
2022/09/12 02:10:31;;;;;;;6.02;2.02;;;;;;;16.03;45.24;100074.63;449306;117;922520;-78
2022/09/12 02:11:38;;;;;;;4.13;1.94;;;;;;;16.02;45.20;100078.47;449037;118;922783;-78
2022/09/12 02:12:45;;;;;;;5.78;2.48;;;;;;;16.01;45.15;100080.38;449452;117;922730;-78
2022/09/12 02:13:54;;;;;;;4.92;1.86;;;;;;;16.01;45.19;100082.30;448865;117;922888;-78
2022/09/12 02:15:01;;;;;;;9.62;1.66;;;;;;;16.01;45.30;100079.55;449359;118;922558;-78
2022/09/12 02:16:11;;;;;;;2.99;1.62;;;;;;;16.00;45.53;100073.22;456344;116;922882;-78
2022/09/12 02:17:17;;;;;;;3.46;1.67;;;;;;;16.01;45.77;100072.13;457063;116;922598;-78
2022/09/12 02:18:20;;;;;;;4.86;1.82;;;;;;;16.01;45.91;100074.88;456930;116;922996;-78
2022/09/12 02:19:29;;;;;;;2.96;1.54;;;;;;;16.01;45.90;100077.63;457266;116;922633;-78
2022/09/12 02:20:38;;;;;;;5.62;1.78;;;;;;;16.00;46.02;100073.22;457093;116;922573;-78
2022/09/12 02:21:53;;;;;;;6.08;1.76;;;;;;;16.00;46.11;100075.97;453662;115;922866;-77
2022/09/12 02:22:57;;;;;;;4.88;2.12;;;;;;;15.99;46.18;100070.75;452957;115;930508;-77
2022/09/12 02:24:03;;;;;;;6.44;1.73;;;;;;;15.99;46.29;100077.05;453056;117;922658;-77
2022/09/12 02:25:10;;;;;;;10.99;2.21;;;;;;;15.98;46.40;100075.42;452975;117;930440;-78
2022/09/12 02:26:18;;;;;;;6.14;1.64;;;;;;;15.97;46.51;100076.51;453072;117;923123;-77
2022/09/12 02:27:25;;;;;;;7.28;2.17;;;;;;;15.96;46.42;100082.27;453029;117;922480;-78
2022/09/12 02:28:37;;;;;;;9.63;2.37;;;;;;;15.95;46.34;100073.18;452993;115;923015;-78
2022/09/12 02:29:41;;;;;;;6.49;1.87;;;;;;;15.96;46.35;100074.84;453128;117;923077;-77
2022/09/12 02:31:07;;;;;;;8.55;2.42;;;;;;;15.94;46.46;100071.52;454070;116;922525;-78
2022/09/12 02:32:47;;;;;;;5.01;1.91;;;;;;;15.94;46.63;100074.27;440964;120;922489;-78
2022/09/12 02:34:14;;;;;;;4.33;1.98;;;;;;;15.93;46.91;100064.38;451483;114;922517;-78
2022/09/12 02:35:37;;;;;;;11.77;1.56;;;;;;;15.91;47.02;100072.05;456629;115;922913;-77
2022/09/12 02:36:50;;;;;;;7.26;2.02;;;;;;;15.88;47.45;100058.81;456418;115;922793;-77
2022/09/12 02:38:14;;;;;;;10.86;2.30;;;;;;;15.87;47.54;100072.84;456789;115;922531;-78
2022/09/12 02:39:20;;;;;;;9.00;1.94;;;;;;;15.86;47.54;100072.02;439388;115;923639;-78
2022/09/12 02:40:24;;;;;;;5.88;2.28;;;;;;;15.83;47.53;100067.86;457261;116;922802;-77
2022/09/12 02:41:27;;;;;;;3.65;1.65;;;;;;;15.82;47.62;100065.39;457402;115;922963;-77
2022/09/12 02:42:30;;;;;;;6.72;1.88;;;;;;;15.82;47.62;100070.89;457394;115;923004;-77
2022/09/12 02:43:33;;;;;;;4.59;1.88;;;;;;;15.81;47.65;100071.97;457387;114;923045;-78
2022/09/12 02:44:36;;;;;;;5.67;1.82;;;;;;;15.80;47.55;100065.64;457333;115;922993;-77
2022/09/12 02:45:39;;;;;;;7.54;2.56;;;;;;;15.80;47.66;100073.89;457496;115;923034;-78
2022/09/12 02:46:46;;;;;;;4.89;2.02;;;;;;;15.79;47.68;100074.14;458476;115;922649;-77
2022/09/12 02:47:58;;;;;;;7.85;2.33;;;;;;;15.80;47.79;100075.80;458282;114;922251;-77
2022/09/12 02:49:01;;;;;;;8.65;1.97;;;;;;;15.79;47.87;100074.97;458362;116;922563;-78
2022/09/12 02:50:06;;;;;;;9.26;2.31;;;;;;;15.79;47.92;100079.64;458471;116;922298;-77
2022/09/12 02:51:10;;;;;;;6.33;2.14;;;;;;;15.78;48.29;100076.06;458420;116;922516;-78
2022/09/12 02:52:14;;;;;;;6.99;2.32;;;;;;;15.78;48.28;100081.56;457461;115;922589;-77
2022/09/12 02:53:18;;;;;;;6.97;1.94;;;;;;;15.78;48.27;100078.81;457237;114;922572;-77
2022/09/12 02:54:21;;;;;;;6.39;1.74;;;;;;;15.77;48.04;100085.39;457287;116;923212;-77
2022/09/12 02:55:23;;;;;;;7.35;1.82;;;;;;;15.78;47.76;100077.97;457349;115;922938;-77
2022/09/12 02:56:28;;;;;;;7.48;2.08;;;;;;;15.78;48.24;100072.48;457336;115;923533;-77
2022/09/12 02:57:32;;;;;;;7.42;2.48;;;;;;;15.79;48.45;100076.89;457122;116;923066;-78
2022/09/12 02:58:35;;;;;;;4.60;2.30;;;;;;;15.77;48.45;100088.14;458506;114;922825;-78
2022/09/12 02:59:38;;;;;;;7.30;1.83;;;;;;;15.76;48.60;100086.50;461547;115;922527;-77
2022/09/12 03:00:56;;;;;;;5.13;1.99;;;;;;;15.77;48.87;100088.14;461613;115;923109;-77
2022/09/12 03:02:23;;;;;;;5.34;2.26;;;;;;;15.75;48.70;100081.26;461382;115;923027;-77
2022/09/12 03:03:56;;;;;;;8.24;1.97;;;;;;;15.74;48.73;100083.17;461371;115;922994;-77
2022/09/12 03:05:14;;;;;;;5.90;2.39;;;;;;;15.74;48.89;100082.34;461728;113;922537;-77
2022/09/12 03:06:41;;;;;;;4.55;2.04;;;;;;;15.71;48.81;100086.42;461197;114;922876;-77
2022/09/12 03:07:47;;;;;;;6.34;2.01;;;;;;;15.70;48.94;100082.05;461648;114;931354;-77
2022/09/12 03:09:00;;;;;;;10.22;2.14;;;;;;;15.70;49.14;100078.47;461827;114;922924;-77
2022/09/12 03:10:25;;;;;;;7.81;2.36;;;;;;;15.70;48.93;100078.47;461516;113;922627;-77
2022/09/12 03:11:37;;;;;;;8.82;1.68;;;;;;;15.70;49.01;100078.47;461404;113;923088;-77
2022/09/12 03:13:06;;;;;;;4.64;1.94;;;;;;;15.70;49.01;100086.71;461596;113;922645;-77
2022/09/12 03:14:27;;;;;;;5.02;1.69;;;;;;;15.69;49.03;100077.63;452395;116;923098;-77
2022/09/12 03:15:40;;;;;;;4.93;2.20;;;;;;;15.68;48.83;100075.97;443860;118;922800;-77
2022/09/12 03:17:14;;;;;;;6.85;1.93;;;;;;;15.67;48.83;100089.97;458165;115;922502;-77
2022/09/12 03:18:20;;;;;;;7.29;2.36;;;;;;;15.65;48.89;100079.25;457768;113;922552;-77
2022/09/12 03:19:30;;;;;;;8.97;2.44;;;;;;;15.64;49.03;100077.59;458276;115;923145;-77
2022/09/12 03:20:37;;;;;;;10.41;2.26;;;;;;;15.63;49.01;100073.17;457631;115;922467;-77
2022/09/12 03:21:52;;;;;;;4.90;1.77;;;;;;;15.63;49.18;100072.34;458157;115;922507;-77
2022/09/12 03:23:07;;;;;;;9.98;1.88;;;;;;;15.63;49.37;100081.42;458197;113;922895;-77
2022/09/12 03:24:36;;;;;;;12.62;2.13;;;;;;;15.62;49.38;100071.52;457715;115;922578;-77
2022/09/12 03:25:43;;;;;;;4.49;1.70;;;;;;;15.63;49.46;100084.17;458199;115;922872;-77
2022/09/12 03:26:58;;;;;;;7.42;2.11;;;;;;;15.63;49.61;100086.09;457956;115;922546;-77
2022/09/12 03:28:10;;;;;;;3.85;2.02;;;;;;;15.62;49.75;100077.00;457354;113;922652;-77
2022/09/12 03:29:14;;;;;;;6.61;1.95;;;;;;;15.63;50.01;100078.67;458091;115;922983;-77
2022/09/12 03:30:17;;;;;;;6.04;1.98;;;;;;;15.64;50.06;100079.50;459717;115;923206;-77
2022/09/12 03:31:21;;;;;;;6.37;2.09;;;;;;;15.65;50.17;100086.66;458397;115;922659;-77
2022/09/12 03:32:45;;;;;;;9.28;2.25;;;;;;;15.65;50.23;100083.91;457239;116;922728;-77
2022/09/12 03:33:48;;;;;;;5.77;1.87;;;;;;;15.64;50.40;100085.00;459361;113;922523;-77
2022/09/12 03:34:51;;;;;;;6.62;1.94;;;;;;;15.64;50.30;100076.75;466427;113;922465;-77
2022/09/12 03:35:55;;;;;;;8.16;2.32;;;;;;;15.63;50.43;100077.84;466470;113;922542;-77
2022/09/12 03:36:58;;;;;;;4.42;1.95;;;;;;;15.63;50.49;100083.34;466369;113;922439;-77
2022/09/12 03:38:01;;;;;;;6.41;1.71;;;;;;;15.64;50.48;100079.50;466470;113;922480;-77
2022/09/12 03:39:04;;;;;;;6.00;2.18;;;;;;;15.64;50.45;100082.25;466442;113;923502;-77
2022/09/12 03:40:08;;;;;;;6.46;2.13;;;;;;;15.65;50.46;100083.91;466450;113;923062;-77
2022/09/12 03:41:12;;;;;;;8.86;2.28;;;;;;;15.66;50.47;100085.55;466302;113;922556;-77
2022/09/12 03:42:15;;;;;;;7.34;1.83;;;;;;;15.67;50.50;100081.72;466478;113;922929;-77
2022/09/12 03:43:18;;;;;;;6.09;2.21;;;;;;;15.69;50.45;100085.05;466413;113;923025;-77
2022/09/12 03:44:21;;;;;;;10.08;2.19;;;;;;;15.69;50.43;100085.88;466418;113;923034;-77
2022/09/12 03:45:24;;;;;;;5.72;2.06;;;;;;;15.73;50.50;100086.17;466494;113;922476;-77
2022/09/12 03:46:27;;;;;;;5.99;2.01;;;;;;;15.72;50.49;100077.09;466379;113;922813;-77
2022/09/12 03:47:30;;;;;;;4.83;2.08;;;;;;;15.75;50.44;100081.26;466497;113;922415;-77
2022/09/12 03:48:33;;;;;;;4.06;2.02;;;;;;;15.77;50.43;100070.81;466468;113;922965;-77
2022/09/12 03:49:36;;;;;;;6.02;2.42;;;;;;;15.79;50.59;100076.89;466502;113;922920;-77
2022/09/12 03:50:39;;;;;;;7.33;2.27;;;;;;;15.81;50.48;100078.30;466463;113;922878;-77
2022/09/12 03:51:42;;;;;;;4.62;2.17;;;;;;;15.82;50.46;100076.39;466498;113;922959;-77
2022/09/12 03:52:45;;;;;;;8.38;2.17;;;;;;;15.84;50.29;100075.02;466432;113;922553;-77
2022/09/12 03:53:48;;;;;;;4.92;1.86;;;;;;;15.87;50.26;100078.34;466453;113;922511;-77
2022/09/12 03:54:51;;;;;;;6.03;2.31;;;;;;;15.89;50.21;100078.89;466496;113;922963;-77
2022/09/12 03:55:54;;;;;;;7.97;2.08;;;;;;;15.90;50.17;100070.39;466438;113;923033;-77
2022/09/12 03:56:57;;;;;;;9.76;2.54;;;;;;;15.92;50.12;100076.47;466458;113;922423;-77
2022/09/12 03:58:00;;;;;;;7.26;2.50;;;;;;;15.96;50.17;100074.02;466493;113;922989;-77
2022/09/12 03:59:06;;;;;;;7.35;2.03;;;;;;;15.98;50.27;100075.42;459745;113;922511;-77
2022/09/12 04:00:10;;;;;;;7.19;2.02;;;;;;;16.01;50.17;100072.13;457168;116;922537;-77
2022/09/12 04:01:18;;;;;;;10.57;2.45;;;;;;;16.04;50.18;100076.30;457126;116;922775;-77
2022/09/12 04:02:21;;;;;;;12.59;2.11;;;;;;;16.07;50.27;100079.34;457165;115;922455;-77
2022/09/12 04:03:24;;;;;;;6.04;2.19;;;;;;;16.11;50.34;100082.38;457376;114;922490;-77
2022/09/12 04:04:27;;;;;;;6.98;2.09;;;;;;;16.13;50.29;100077.45;457308;115;922607;-77
2022/09/12 04:05:30;;;;;;;9.88;2.06;;;;;;;16.16;50.27;100076.91;457354;116;922572;-77
2022/09/12 04:06:33;;;;;;;7.67;1.97;;;;;;;16.17;50.34;100071.16;457355;116;923051;-77
2022/09/12 04:07:36;;;;;;;6.60;2.33;;;;;;;16.20;50.49;100078.06;457308;115;922530;-77
2022/09/12 04:08:39;;;;;;;7.78;1.94;;;;;;;16.22;50.60;100076.69;457313;114;923015;-77
2022/09/12 04:09:43;;;;;;;5.47;2.40;;;;;;;16.23;50.78;100077.52;457231;115;922624;-77
2022/09/12 04:10:45;;;;;;;6.06;2.01;;;;;;;16.24;50.80;100079.19;457305;116;922880;-77
2022/09/12 04:11:49;;;;;;;6.09;2.22;;;;;;;16.25;50.92;100070.68;457297;115;923463;-77
2022/09/12 04:12:52;;;;;;;11.97;3.16;;;;;;;16.25;50.86;100078.94;457338;114;922431;-77
2022/09/12 04:13:55;;;;;;;5.79;2.72;;;;;;;16.26;50.96;100071.52;457331;116;923464;-77
2022/09/12 04:14:58;;;;;;;10.03;2.78;;;;;;;16.26;51.02;100071.52;456307;115;922902;-77
2022/09/12 04:16:01;;;;;;;5.71;2.51;;;;;;;16.26;51.04;100075.06;455610;116;922966;-77
2022/09/12 04:17:04;;;;;;;7.71;2.07;;;;;;;16.27;51.04;100078.65;455622;116;922897;-77
2022/09/12 04:18:07;;;;;;;8.09;2.17;;;;;;;16.27;51.13;100073.97;455591;116;922561;-77
2022/09/12 04:19:11;;;;;;;6.24;2.44;;;;;;;16.28;51.24;100078.39;455651;116;922554;-77
2022/09/12 04:20:15;;;;;;;11.16;2.86;;;;;;;16.30;51.38;100083.64;455316;116;923085;-77
2022/09/12 04:21:23;;;;;;;9.68;2.72;;;;;;;16.33;51.43;100079.51;455558;116;922861;-77
2022/09/12 04:22:26;;;;;;;7.92;2.32;;;;;;;16.35;51.52;100074.58;455352;116;922534;-77
2022/09/12 04:23:28;;;;;;;7.43;2.38;;;;;;;16.37;51.68;100073.24;455551;116;922950;-77
2022/09/12 04:24:31;;;;;;;5.81;2.08;;;;;;;16.38;51.70;100074.87;455573;116;922887;-77
2022/09/12 04:25:34;;;;;;;7.86;3.02;;;;;;;16.40;51.68;100077.36;455583;116;922962;-77
2022/09/12 04:26:37;;;;;;;13.49;2.89;;;;;;;16.42;51.59;100072.44;455506;116;922426;-77
2022/09/12 04:27:40;;;;;;;10.03;2.44;;;;;;;16.43;51.65;100077.66;455546;116;922898;-77
2022/09/12 04:28:43;;;;;;;7.26;2.51;;;;;;;16.45;51.57;100074.64;455474;116;923008;-77
2022/09/12 04:29:46;;;;;;;5.21;2.51;;;;;;;16.47;51.53;100077.97;456481;115;923048;-77
2022/09/12 04:30:49;;;;;;;7.48;2.74;;;;;;;16.49;51.56;100078.52;458318;115;922453;-77
2022/09/12 04:31:53;;;;;;;12.89;2.88;;;;;;;16.50;51.54;100078.25;455467;116;923570;-77
2022/09/12 04:32:55;;;;;;;7.69;2.36;;;;;;;16.53;51.67;100083.25;455450;116;930484;-77
2022/09/12 04:34:00;;;;;;;6.74;2.96;;;;;;;16.55;51.80;100080.20;455541;116;922465;-77
2022/09/12 04:35:03;;;;;;;12.22;2.82;;;;;;;16.57;51.79;100081.61;455419;116;923892;-77
2022/09/12 04:36:10;;;;;;;7.46;2.36;;;;;;;16.59;51.79;100084.14;455484;116;923077;-77
2022/09/12 04:37:13;;;;;;;8.43;2.90;;;;;;;16.60;51.79;100083.84;454945;116;922621;-77
2022/09/12 04:38:16;;;;;;;6.79;2.59;;;;;;;16.61;51.85;100084.69;455558;116;923162;-77
2022/09/12 04:39:19;;;;;;;6.25;2.59;;;;;;;16.62;51.93;100083.59;455565;116;923106;-77
2022/09/12 04:40:22;;;;;;;10.15;2.65;;;;;;;16.65;51.95;100091.30;455508;116;922958;-77
2022/09/12 04:41:27;;;;;;;8.55;2.88;;;;;;;16.67;52.06;100089.13;455557;116;922902;-77
2022/09/12 04:42:30;;;;;;;7.34;2.87;;;;;;;16.66;52.08;100088.29;455335;116;923056;-77
2022/09/12 04:43:33;;;;;;;7.53;3.08;;;;;;;16.68;52.09;100096.30;455548;116;922523;-78
2022/09/12 04:44:36;;;;;;;6.04;2.97;;;;;;;16.67;52.18;100086.38;455490;116;922944;-76
2022/09/12 04:45:39;;;;;;;8.76;3.05;;;;;;;16.67;52.26;100084.45;455585;116;922589;-76
2022/09/12 04:46:45;;;;;;;8.43;2.98;;;;;;;16.68;52.35;100088.03;455562;116;923007;-76
2022/09/12 04:47:48;;;;;;;7.53;2.73;;;;;;;16.70;52.35;100083.10;455352;116;922483;-77
2022/09/12 04:48:51;;;;;;;11.51;3.18;;;;;;;16.69;52.40;100089.70;455548;116;922536;-77
2022/09/12 04:49:56;;;;;;;6.67;2.97;;;;;;;16.68;52.38;100086.11;454878;116;922644;-76
2022/09/12 04:51:11;;;;;;;7.97;2.95;;;;;;;16.69;52.45;100086.95;455540;116;923048;-77
2022/09/12 04:52:14;;;;;;;8.69;2.96;;;;;;;16.69;52.62;100081.44;455369;116;922497;-76
2022/09/12 04:53:16;;;;;;;5.76;3.02;;;;;;;16.70;52.65;100088.61;455515;116;922733;-77
2022/09/12 04:54:20;;;;;;;7.89;2.71;;;;;;;16.70;52.66;100091.36;455562;116;922865;-76
2022/09/12 04:55:24;;;;;;;7.56;2.69;;;;;;;16.70;52.82;100090.53;455554;116;923056;-77
2022/09/12 04:56:28;;;;;;;6.92;2.59;;;;;;;16.70;53.12;100088.61;455388;116;923062;-77
2022/09/12 04:57:31;;;;;;;9.14;2.75;;;;;;;16.71;53.45;100092.99;455523;116;923161;-77
2022/09/12 04:58:35;;;;;;;8.48;2.69;;;;;;;16.71;53.70;100090.23;454734;116;923467;-77
2022/09/12 04:59:38;;;;;;;8.99;2.58;;;;;;;16.71;53.90;100083.90;452449;117;923181;-78
2022/09/12 05:00:42;;;;;;;9.15;2.86;;;;;;;16.71;54.12;100084.73;452411;117;922463;-77
2022/09/12 05:01:45;;;;;;;8.64;2.34;;;;;;;16.72;54.50;100074.55;452471;117;923018;-77
2022/09/12 05:02:48;;;;;;;12.55;2.94;;;;;;;16.72;54.89;100083.64;452459;117;922687;-77
2022/09/12 05:03:51;;;;;;;7.53;3.14;;;;;;;16.72;55.20;100071.80;452558;117;923072;-77
2022/09/12 05:04:53;;;;;;;9.37;2.90;;;;;;;16.72;55.41;100071.80;452545;117;923010;-77
2022/09/12 05:05:56;;;;;;;12.84;3.69;;;;;;;16.73;55.59;100076.22;452534;117;922516;-77
2022/09/12 05:06:59;;;;;;;6.97;2.79;;;;;;;16.73;55.72;100073.46;452541;117;922985;-77
2022/09/12 05:08:02;;;;;;;9.27;3.54;;;;;;;16.74;55.81;100075.13;452544;117;923089;-77
2022/09/12 05:09:07;;;;;;;6.11;2.88;;;;;;;16.74;55.96;100075.95;452531;117;923038;-77
2022/09/12 05:10:11;;;;;;;11.89;3.12;;;;;;;16.76;56.12;100070.99;453491;116;922490;-77
2022/09/12 05:11:17;;;;;;;11.66;3.44;;;;;;;16.77;56.27;100071.82;455418;116;922541;-77